Time;durP1;ratioP1;P1;durP2;ratioP2;P2;SDS_P1;SDS_P2;PMS_P1;PMS_P2;Temp;Humidity;BMP_temperature;BMP_pressure;BME280_temperature;BME280_humidity;BME280_pressure;Samples;Min_cycle;Max_cycle;Signal;HPM_P1;HPM_P2
2021/01/06 00:02:05;;;;;;;5.50;1.75;;;2.60;99.60;;;;;;5050883;28;20400;-61
2021/01/06 00:08:48;;;;;;;10.25;2.38;;;2.60;99.20;;;;;;5073134;28;20044;-61
2021/01/06 00:11:17;;;;;;;7.20;2.28;;;2.60;99.30;;;;;;5057360;28;20091;-61
2021/01/06 00:21:17;;;;;;;3.13;1.55;;;2.60;99.40;;;;;;5073093;28;20451;-61
2021/01/06 00:23:46;;;;;;;7.78;2.08;;;2.60;99.40;;;;;;5072979;28;20071;-61
2021/01/06 00:26:20;;;;;;;4.35;2.00;;;2.50;99.30;;;;;;5068512;28;20049;-61
2021/01/06 00:29:25;;;;;;;5.45;1.98;;;2.60;99.00;;;;;;5071423;28;20037;-61
2021/01/06 00:32:00;;;;;;;4.22;1.73;;;2.60;99.40;;;;;;5038175;28;20493;-61
2021/01/06 00:38:45;;;;;;;7.20;1.90;;;2.60;99.60;;;;;;5056637;28;20043;-61
2021/01/06 00:41:30;;;;;;;3.53;1.52;;;2.60;99.30;;;;;;5057367;28;20048;-61
2021/01/06 00:43:57;;;;;;;3.15;1.38;;;2.60;99.20;;;;;;5063486;28;20127;-61
2021/01/06 00:46:34;;;;;;;7.78;1.70;;;2.70;99.90;;;;;;5076382;28;20068;-61
2021/01/06 00:49:12;;;;;;;4.10;2.00;;;2.70;99.50;;;;;;5076837;28;20504;-61
2021/01/06 00:51:39;;;;;;;4.75;1.98;;;2.70;99.10;;;;;;5063783;28;20036;-61
2021/01/06 00:54:26;;;;;;;6.35;2.10;;;2.70;99.00;;;;;;5054034;28;20044;-61
2021/01/06 01:01:15;;;;;;;5.07;2.15;;;2.70;99.20;;;;;;5061990;28;20087;-62
2021/01/06 01:03:46;;;;;;;5.35;2.33;;;2.70;99.10;;;;;;5069834;28;20091;-61
2021/01/06 01:06:26;;;;;;;4.72;2.28;;;2.70;99.30;;;;;;5072905;28;20424;-61
2021/01/06 01:08:55;;;;;;;4.53;1.83;;;2.70;98.80;;;;;;5058817;28;20044;-61
2021/01/06 01:11:47;;;;;;;4.93;1.88;;;2.70;99.30;;;;;;5056529;28;20041;-61
2021/01/06 01:18:45;;;;;;;4.25;2.03;;;2.80;99.20;;;;;;5070169;28;20043;-61
2021/01/06 01:21:19;;;;;;;5.82;2.00;;;2.80;99.00;;;;;;5076895;28;20129;-61
2021/01/06 01:23:50;;;;;;;7.35;2.58;;;2.80;99.70;;;;;;5077144;28;20124;-61
2021/01/06 01:26:18;;;;;;;5.88;2.10;;;2.80;99.10;;;;;;5060527;28;20140;-61
2021/01/06 01:28:50;;;;;;;7.95;2.35;;;2.80;99.50;;;;;;5058837;28;20041;-61
2021/01/06 01:31:17;;;;;;;5.80;1.88;;;2.80;99.20;;;;;;5060337;28;20041;-61
2021/01/06 01:33:47;;;;;;;6.57;2.20;;;2.80;99.30;;;;;;5067934;28;20387;-61
2021/01/06 01:36:19;;;;;;;8.00;2.75;;;2.90;99.10;;;;;;5070081;28;20048;-61
2021/01/06 01:38:47;;;;;;;8.88;2.55;;;2.80;99.00;;;;;;5060853;28;20049;-61
2021/01/06 01:41:55;;;;;;;5.97;1.92;;;2.80;99.10;;;;;;5056214;28;20053;-61
2021/01/06 01:44:21;;;;;;;9.68;2.65;;;2.80;99.30;;;;;;5056028;28;20041;-61
2021/01/06 01:47:13;;;;;;;9.73;3.05;;;2.80;99.70;;;;;;5074321;28;20044;-61
2021/01/06 01:53:53;;;;;;;6.15;2.10;;;2.80;99.40;;;;;;5071760;28;20031;-61
2021/01/06 01:56:24;;;;;;;5.70;2.40;;;2.80;99.30;;;;;;5060007;28;20067;-61
2021/01/06 01:58:54;;;;;;;6.63;2.80;;;2.80;99.10;;;;;;5072559;28;20109;-61
2021/01/06 02:01:30;;;;;;;5.75;2.88;;;2.80;99.30;;;;;;5075292;28;20064;-61
2021/01/06 02:04:35;;;;;;;6.60;2.47;;;2.80;99.40;;;;;;5060067;28;20052;-61
2021/01/06 02:11:21;;;;;;;4.80;1.92;;;2.80;99.40;;;;;;5061849;28;20408;-61
2021/01/06 02:14:07;;;;;;;;;;;2.80;99.70;;;;;;5050822;28;20037;-61
2021/01/06 02:23:58;;;;;;;5.55;2.47;;;2.90;99.30;;;;;;5075482;28;20481;-61
2021/01/06 02:26:28;;;;;;;5.90;2.63;;;2.80;99.40;;;;;;5034032;28;20054;-61
2021/01/06 02:28:56;;;;;;;8.38;2.58;;;2.90;99.30;;;;;;5055846;28;20041;-61
2021/01/06 02:31:25;;;;;;;7.15;3.08;;;2.90;99.10;;;;;;5055337;28;20069;-61
2021/01/06 02:33:59;;;;;;;5.07;2.17;;;2.80;99.30;;;;;;5073063;28;20041;-61
2021/01/06 02:36:30;;;;;;;9.93;3.38;;;2.90;99.80;;;;;;5065899;28;20041;-61
2021/01/06 02:38:58;;;;;;;6.05;2.60;;;2.80;99.30;;;;;;5035345;28;20056;-61
2021/01/06 02:41:30;;;;;;;9.13;3.10;;;2.90;99.80;;;;;;5051332;28;20037;-61
2021/01/06 02:44:15;;;;;;;5.95;2.78;;;2.80;99.80;;;;;;5041986;28;20048;-61
2021/01/06 02:47:09;;;;;;;7.03;2.65;;;2.90;99.90;;;;;;5037143;28;20053;-61
2021/01/06 02:49:53;;;;;;;7.80;2.10;;;2.80;99.70;;;;;;5058894;28;20136;-61
2021/01/06 02:56:31;;;;;;;6.18;2.50;;;2.80;99.90;;;;;;5038348;28;20488;-61
2021/01/06 02:59:05;;;;;;;4.95;2.20;;;2.80;99.80;;;;;;5066000;28;20051;-61
2021/01/06 03:01:42;;;;;;;4.57;2.10;;;2.80;99.90;;;;;;5074710;28;20037;-61
2021/01/06 03:04:16;;;;;;;5.75;2.63;;;2.80;99.80;;;;;;5034868;28;20473;-61
2021/01/06 03:06:56;;;;;;;7.72;2.42;;;2.90;99.60;;;;;;5057332;28;20051;-61
2021/01/06 03:09:45;;;;;;;7.72;2.95;;;2.80;99.90;;;;;;5059521;28;20064;-61
2021/01/06 03:12:25;;;;;;;5.55;2.17;;;2.80;99.90;;;;;;5060751;28;20037;-61
2021/01/06 03:19:04;;;;;;;4.45;1.83;;;2.90;99.60;;;;;;5057756;28;20082;-61
2021/01/06 03:21:34;;;;;;;6.00;2.03;;;2.90;99.60;;;;;;5070285;28;20476;-61
2021/01/06 03:24:09;;;;;;;4.78;1.88;;;2.90;99.60;;;;;;5074270;28;20408;-61
2021/01/06 03:31:35;;;;;;;4.88;2.42;;;3.00;99.10;;;;;;5062098;28;20121;-61
2021/01/06 03:34:30;;;;;;;3.30;1.50;;;2.90;99.00;;;;;;5034218;28;20042;-61
2021/01/06 03:37:17;;;;;;;4.53;1.75;;;3.00;99.20;;;;;;5059796;28;20121;-61
2021/01/06 03:43:31;;;;;;;5.60;2.33;;;3.00;98.90;;;;;;5063117;28;20066;-61
2021/01/06 03:46:46;;;;;;;5.60;1.80;;;3.10;99.30;;;;;;5062988;28;20045;-61
2021/01/06 03:49:43;;;;;;;3.95;1.80;;;3.00;98.70;;;;;;5054493;28;20033;-62
2021/01/06 03:59:25;;;;;;;5.88;1.77;;;3.00;98.60;;;;;;5051433;28;20045;-61
2021/01/06 04:02:32;;;;;;;3.42;1.30;;;3.00;98.80;;;;;;5056282;28;20053;-61
2021/01/06 04:05:22;;;;;;;6.10;2.05;;;3.00;99.50;;;;;;5069110;28;20057;-61
2021/01/06 04:11:39;;;;;;;6.75;1.40;;;3.00;98.80;;;;;;5048912;28;20491;-61
2021/01/06 04:14:07;;;;;;;3.42;1.30;;;3.00;98.70;;;;;;5039469;28;20052;-61
2021/01/06 04:27:56;;;;;;;6.60;2.20;;;3.00;98.30;;;;;;5066012;28;20094;-61
2021/01/06 04:34:04;;;;;;;4.65;1.58;;;3.00;98.80;;;;;;5033327;28;20079;-61
2021/01/06 04:36:36;;;;;;;3.65;1.50;;;3.00;98.70;;;;;;5060524;28;20537;-61
2021/01/06 04:39:06;;;;;;;4.07;1.60;;;3.00;99.20;;;;;;5033252;28;20124;-61
2021/01/06 04:41:41;;;;;;;6.75;2.15;;;3.00;98.70;;;;;;5052189;28;20037;-61
2021/01/06 04:44:48;;;;;;;4.53;2.00;;;3.00;98.70;;;;;;5058970;28;20392;-61
2021/01/06 04:47:37;;;;;;;6.13;1.90;;;2.90;98.60;;;;;;5064298;28;20033;-61
2021/01/06 04:54:22;;;;;;;6.45;1.88;;;2.90;98.90;;;;;;5062452;28;20028;-61
2021/01/06 05:04:11;;;;;;;3.35;1.50;;;2.80;98.90;;;;;;5033641;28;20047;-61
2021/01/06 05:06:58;;;;;;;6.72;1.60;;;2.90;98.90;;;;;;5034041;28;20124;-61
2021/01/06 05:13:44;;;;;;;2.95;1.35;;;2.90;98.90;;;;;;5059637;28;20127;-61
2021/01/06 05:16:40;;;;;;;2.75;1.15;;;2.90;99.40;;;;;;5033067;28;20041;-61
2021/01/06 05:19:40;;;;;;;3.67;1.42;;;2.90;99.00;;;;;;5059856;28;20063;-61
2021/01/06 05:22:11;;;;;;;4.20;1.20;;;2.90;98.90;;;;;;5048066;28;20049;-61
2021/01/06 05:29:10;;;;;;;3.33;1.40;;;2.90;98.60;;;;;;5030644;28;20417;-61
2021/01/06 05:32:05;;;;;;;5.13;1.63;;;2.90;98.20;;;;;;5071132;28;20048;-61
2021/01/06 05:39:05;;;;;;;6.05;1.33;;;2.90;98.20;;;;;;5064810;28;20056;-61
2021/01/06 05:41:33;;;;;;;3.67;1.60;;;2.90;98.30;;;;;;5068838;28;20044;-61
2021/01/06 05:43:59;;;;;;;5.65;1.73;;;2.90;97.60;;;;;;5040839;28;20037;-61
2021/01/06 05:46:34;;;;;;;3.55;1.30;;;2.90;97.60;;;;;;5065788;28;20045;-61
2021/01/06 05:49:22;;;;;;;5.30;1.20;;;2.90;97.70;;;;;;5070496;28;20041;-61
2021/01/06 06:10:04;;;;;;;3.30;0.90;;;3.10;98.30;;;;;;5058045;28;20101;-61
2021/01/06 06:16:38;;;;;;;9.95;1.40;;;3.10;97.70;;;;;;5062814;28;20048;-61
2021/01/06 06:19:18;;;;;;;2.63;1.02;;;3.10;98.20;;;;;;5064091;28;20051;-61
2021/01/06 06:22:11;;;;;;;5.05;1.00;;;3.10;98.30;;;;;;5069802;28;20044;-61
2021/01/06 06:29:05;;;;;;;4.20;2.10;;;3.10;97.60;;;;;;5052570;28;20047;-61
2021/01/06 06:31:37;;;;;;;2.13;0.80;;;3.10;98.60;;;;;;5035769;28;20128;-61
2021/01/06 06:34:07;;;;;;;6.43;1.60;;;3.20;98.50;;;;;;5069383;28;20504;-61
2021/01/06 06:36:42;;;;;;;3.03;1.20;;;3.20;97.20;;;;;;5055760;28;20044;-61
2021/01/06 06:43:31;;;;;;;2.10;1.00;;;3.20;98.00;;;;;;5064686;28;20396;-61
2021/01/06 06:46:38;;;;;;;3.70;0.95;;;3.20;98.30;;;;;;5035123;28;20085;-61
2021/01/06 06:56:47;;;;;;;2.65;1.23;;;3.20;98.00;;;;;;5060978;28;20036;-61
2021/01/06 06:59:58;;;;;;;4.45;1.30;;;3.10;97.50;;;;;;5035613;28;20053;-61
2021/01/06 07:06:36;;;;;;;5.70;1.38;;;3.10;98.80;;;;;;5059948;28;20035;-61
2021/01/06 07:09:17;;;;;;;4.32;1.50;;;3.10;98.00;;;;;;5035191;28;20042;-62
2021/01/06 07:12:22;;;;;;;3.03;1.35;;;3.20;98.10;;;;;;5048411;28;20047;-61
2021/01/06 07:14:59;;;;;;;3.80;1.15;;;3.20;98.40;;;;;;5050750;28;20071;-61
2021/01/06 07:21:42;;;;;;;4.63;1.10;;;3.20;98.10;;;;;;5056477;28;20047;-61
2021/01/06 07:24:18;;;;;;;2.63;1.17;;;3.20;98.60;;;;;;5057139;28;20041;-61
2021/01/06 07:27:02;;;;;;;4.75;2.13;;;3.20;98.00;;;;;;5070828;28;20071;-62
2021/01/06 07:40:57;;;;;;;4.70;1.52;;;3.30;97.60;;;;;;5053244;28;20487;-61
2021/01/06 07:44:09;;;;;;;6.38;1.30;;;3.30;98.90;;;;;;5057740;28;20140;-64
2021/01/06 07:47:01;;;;;;;3.47;1.35;;;3.30;98.00;;;;;;5064328;28;20515;-64
2021/01/06 07:49:48;;;;;;;2.10;1.10;;;3.20;97.40;;;;;;5035621;28;20076;-62
2021/01/06 07:59:47;;;;;;;2.90;1.20;;;3.20;97.10;;;;;;5066448;28;20045;-61
2021/01/06 08:06:38;;;;;;;4.55;1.20;;;3.20;97.30;;;;;;5055747;28;20482;-63
2021/01/06 08:09:10;;;;;;;4.60;1.60;;;3.20;97.00;;;;;;5073554;28;20389;-62
2021/01/06 08:12:12;;;;;;;13.85;2.05;;;3.10;96.70;;;;;;5032971;28;20413;-62
2021/01/06 08:21:52;;;;;;;5.95;1.30;;;3.10;98.10;;;;;;5069572;28;20459;-62
2021/01/06 08:24:44;;;;;;;3.05;1.48;;;3.10;98.00;;;;;;5055645;28;20111;-61
2021/01/06 08:27:37;;;;;;;4.38;1.80;;;3.10;97.40;;;;;;5055377;28;20126;-62
2021/01/06 08:34:19;;;;;;;1.92;0.95;;;3.00;97.20;;;;;;5062810;28;20058;-61
2021/01/06 08:44:44;;;;;;;3.22;1.52;;;3.10;97.10;;;;;;5068342;28;20112;-62
2021/01/06 08:47:35;;;;;;;2.60;1.30;;;3.10;96.60;;;;;;5061151;28;20060;-62
2021/01/06 08:54:17;;;;;;;3.97;1.55;;;3.10;96.30;;;;;;5063668;28;20035;-62
2021/01/06 08:57:24;;;;;;;4.45;1.15;;;3.10;96.30;;;;;;5053506;28;20048;-61
2021/01/06 09:04:09;;;;;;;13.05;3.28;;;3.10;96.90;;;;;;5069945;28;20047;-63
2021/01/06 09:06:51;;;;;;;8.27;1.73;;;3.10;96.60;;;;;;5059292;28;20054;-63
2021/01/06 09:13:20;;;;;;;4.72;1.42;;;3.00;96.40;;;;;;5070686;28;20027;-63
2021/01/06 09:16:45;;;;;;;2.22;1.10;;;3.10;97.30;;;;;;5060686;28;20070;-63
2021/01/06 09:19:49;;;;;;;4.93;1.10;;;3.10;97.90;;;;;;5034865;28;20136;-62
2021/01/06 09:22:29;;;;;;;2.53;0.88;;;3.10;97.60;;;;;;5044023;28;20119;-65
2021/01/06 09:29:15;;;;;;;4.07;1.75;;;3.20;98.00;;;;;;5064211;28;20525;-63
2021/01/06 09:31:56;;;;;;;2.13;0.95;;;3.20;99.10;;;;;;5069191;28;20503;-65
2021/01/06 09:38:40;;;;;;;2.65;1.33;;;3.20;97.10;;;;;;5054768;28;20392;-63
2021/01/06 09:41:39;;;;;;;2.58;1.38;;;3.20;97.70;;;;;;5048145;28;20049;-63
2021/01/06 09:44:11;;;;;;;4.05;1.13;;;3.20;98.30;;;;;;5056162;28;20531;-62
2021/01/06 09:47:09;;;;;;;6.85;1.85;;;3.00;97.40;;;;;;5070881;28;20079;-62
2021/01/06 09:49:46;;;;;;;6.50;1.58;;;2.90;99.40;;;;;;5056614;28;20044;-62
2021/01/06 09:52:34;;;;;;;3.13;1.13;;;2.90;99.80;;;;;;5041804;28;20481;-62
2021/01/06 09:59:17;;;;;;;2.83;1.20;;;2.80;99.80;;;;;;5061747;28;20396;-62
2021/01/06 10:01:47;;;;;;;1.85;0.90;;;2.80;99.90;;;;;;5051759;28;20036;-64
2021/01/06 10:04:27;;;;;;;5.72;1.40;;;2.80;99.90;;;;;;5074731;28;20488;-67
2021/01/06 10:07:27;;;;;;;4.10;1.30;;;2.80;99.90;;;;;;5064351;28;20118;-62
2021/01/06 10:14:11;;;;;;;4.28;1.40;;;2.70;99.90;;;;;;5055491;28;20092;-63
2021/01/06 10:16:53;;;;;;;2.95;1.45;;;2.70;99.90;;;;;;5053118;28;20048;-62
2021/01/06 10:19:56;;;;;;;2.78;1.30;;;2.60;99.80;;;;;;5055389;28;20045;-62
2021/01/06 10:26:42;;;;;;;3.05;1.23;;;2.60;99.90;;;;;;5059767;28;20032;-62
2021/01/06 10:29:21;;;;;;;2.00;1.20;;;2.70;99.90;;;;;;5065207;28;20040;-63
2021/01/06 10:32:04;;;;;;;5.95;1.70;;;2.60;99.90;;;;;;5057907;28;20116;-64
2021/01/06 10:35:10;;;;;;;3.60;1.70;;;2.60;99.90;;;;;;5070132;28;20484;-63
2021/01/06 10:41:42;;;;;;;3.38;1.40;;;2.70;99.90;;;;;;5071314;28;20085;-63
2021/01/06 10:47:31;;;;;;;2.47;1.30;;;2.70;99.90;;;;;;5059332;28;20060;-63
2021/01/06 10:57:36;;;;;;;2.97;1.33;;;2.70;99.90;;;;;;5035203;28;20132;-62
2021/01/06 11:00:11;;;;;;;5.20;1.27;;;2.70;99.90;;;;;;5036905;28;20041;-62
2021/01/06 11:03:14;;;;;;;3.50;1.63;;;2.70;99.90;;;;;;5054761;28;20048;-62
2021/01/06 11:05:52;;;;;;;3.00;1.38;;;2.70;99.90;;;;;;5057067;28;20421;-63
2021/01/06 11:08:58;;;;;;;1.67;0.95;;;2.60;99.90;;;;;;5043978;28;20522;-62
2021/01/06 11:12:16;;;;;;;2.65;1.25;;;2.60;99.90;;;;;;5044118;28;20045;-62
2021/01/06 11:15:11;;;;;;;3.38;1.45;;;2.60;99.90;;;;;;5062141;28;20068;-62
2021/01/06 11:17:55;;;;;;;;;;;2.60;99.90;;;;;;5059263;28;20382;-62
2021/01/06 11:24:49;;;;;;;5.53;1.83;;;2.50;99.90;;;;;;5064990;28;20028;-62
2021/01/06 11:27:58;;;;;;;6.72;2.13;;;2.40;99.90;;;;;;5057517;28;20086;-62
2021/01/06 11:34:19;;;;;;;3.72;1.40;;;2.50;99.90;;;;;;5048754;28;20114;-63
2021/01/06 11:40:27;;;;;;;12.20;4.35;;;2.50;99.90;;;;;;5051294;28;20514;-62
2021/01/06 11:47:15;;;;;;;4.80;2.20;;;2.50;99.90;;;;;;5057448;28;20099;-63
2021/01/06 11:49:54;;;;;;;6.25;2.40;;;2.40;99.90;;;;;;5067718;28;20041;-63
2021/01/06 11:52:49;;;;;;;2.65;1.38;;;2.40;99.90;;;;;;5060657;28;20110;-63
2021/01/06 11:55:36;;;;;;;30.42;9.57;;;2.40;99.90;;;;;;5040413;28;20037;-62
2021/01/06 11:58:10;;;;;;;50.15;12.88;;;2.30;99.90;;;;;;5040300;28;20040;-62
2021/01/06 12:04:41;;;;;;;3.70;1.52;;;2.40;99.90;;;;;;5055388;28;20039;-63
2021/01/06 12:07:46;;;;;;;1.50;0.95;;;2.40;99.90;;;;;;5065528;28;20045;-63
2021/01/06 12:10:34;;;;;;;2.30;1.15;;;2.40;99.90;;;;;;5070156;28;20044;-63
2021/01/06 12:17:15;;;;;;;1.92;0.80;;;2.40;99.90;;;;;;5050354;28;20486;-63
2021/01/06 12:20:27;;;;;;;1.10;0.70;;;2.50;99.90;;;;;;5053612;28;20545;-64
2021/01/06 12:23:47;;;;;;;1.23;0.73;;;2.60;99.90;;;;;;5071915;28;20041;-63
2021/01/06 12:30:38;;;;;;;1.85;0.77;;;2.70;99.90;;;;;;5063553;28;20486;-63
2021/01/06 12:33:26;;;;;;;2.05;0.98;;;2.60;99.90;;;;;;5045308;28;20057;-64
2021/01/06 12:36:19;;;;;;;1.80;0.90;;;2.70;99.90;;;;;;5066234;28;20072;-64
2021/01/06 12:39:29;;;;;;;2.10;0.77;;;2.80;99.90;;;;;;5059656;28;20052;-63
2021/01/06 12:45:36;;;;;;;3.67;1.38;;;2.80;99.90;;;;;;5051911;28;20079;-63
2021/01/06 12:48:12;;;;;;;2.63;1.50;;;2.80;99.90;;;;;;5050143;28;20072;-63
2021/01/06 12:51:14;;;;;;;4.05;1.45;;;2.80;99.90;;;;;;5067971;28;20057;-63
2021/01/06 12:53:59;;;;;;;6.22;1.60;;;2.80;99.90;;;;;;5068316;28;20044;-63
2021/01/06 13:00:33;;;;;;;6.45;1.48;;;2.80;99.90;;;;;;5064150;28;20123;-65
2021/01/06 13:07:23;;;;;;;2.95;1.00;;;2.60;99.90;;;;;;5052777;28;20035;-63
2021/01/06 13:28:37;;;;;;;4.93;1.00;;;2.60;99.90;;;;;;5056473;28;20036;-63
2021/01/06 13:31:42;;;;;;;1.60;0.90;;;2.50;99.90;;;;;;5067824;28;20080;-63
2021/01/06 13:34:12;;;;;;;;;;;2.50;99.90;;;;;;5059922;28;20055;-64
2021/01/06 13:36:51;;;;;;;1.67;0.75;;;2.40;99.90;;;;;;5042919;28;19924;-64
2021/01/06 13:43:31;;;;;;;3.30;0.80;;;2.40;99.90;;;;;;5054888;28;20040;-64
2021/01/06 13:46:55;;;;;;;2.03;0.85;;;2.40;99.90;;;;;;5051917;28;20032;-64
2021/01/06 13:53:38;;;;;;;3.63;1.27;;;2.50;99.90;;;;;;5061572;28;20416;-65
2021/01/06 13:56:28;;;;;;;3.75;1.30;;;2.50;99.90;;;;;;5053140;28;20045;-64
2021/01/06 14:06:29;;;;;;;2.97;0.85;;;2.60;99.90;;;;;;5057950;28;20031;-64
2021/01/06 14:12:36;;;;;;;3.95;0.80;;;2.70;99.90;;;;;;5035665;28;20489;-62
2021/01/06 14:15:28;;;;;;;2.35;1.05;;;2.70;99.90;;;;;;5065854;28;20127;-64
2021/01/06 14:18:26;;;;;;;1.42;0.68;;;2.80;99.90;;;;;;5060979;28;20052;-64
2021/01/06 14:25:00;;;;;;;2.35;1.27;;;2.90;99.90;;;;;;5045884;28;20032;-64
2021/01/06 14:27:46;;;;;;;4.10;0.90;;;2.90;99.90;;;;;;5057186;28;20350;-64
2021/01/06 14:45:45;;;;;;;1.75;0.73;;;2.90;99.90;;;;;;5036876;28;20073;-65
2021/01/06 14:48:30;;;;;;;5.13;0.85;;;3.00;99.90;;;;;;5058638;28;20052;-65
2021/01/06 14:55:00;;;;;;;4.90;1.23;;;3.00;99.90;;;;;;5062082;28;20163;-63
2021/01/06 14:57:37;;;;;;;3.33;1.13;;;3.00;99.90;;;;;;5051706;28;20477;-64
2021/01/06 15:07:56;;;;;;;3.38;1.10;;;3.00;99.90;;;;;;5059317;28;20032;-63
2021/01/06 15:17:34;;;;;;;3.00;1.00;;;3.00;99.90;;;;;;5053610;28;20052;-65
2021/01/06 15:28:32;;;;;;;2.08;0.90;;;3.00;99.90;;;;;;5055126;28;20159;-63
2021/01/06 15:35:19;;;;;;;2.08;1.30;;;2.90;99.90;;;;;;5035702;28;20028;-64
2021/01/06 15:38:00;;;;;;;3.05;1.38;;;2.90;99.90;;;;;;5037016;28;20120;-63
2021/01/06 15:40:40;;;;;;;6.18;1.90;;;2.80;99.90;;;;;;5070744;28;20041;-65
2021/01/06 15:43:46;;;;;;;4.15;1.05;;;2.80;99.90;;;;;;5045275;28;20063;-65
2021/01/06 15:50:25;;;;;;;2.17;1.05;;;2.80;99.90;;;;;;5057513;28;20063;-64
2021/01/06 15:53:24;;;;;;;4.55;1.20;;;2.80;99.90;;;;;;5069547;28;20049;-64
2021/01/06 15:55:52;;;;;;;2.22;1.10;;;2.80;99.90;;;;;;5043304;28;20056;-64
2021/01/06 15:58:25;;;;;;;2.90;0.85;;;2.80;99.90;;;;;;5064626;28;20574;-64
2021/01/06 16:05:10;;;;;;;1.70;0.75;;;2.80;99.90;;;;;;5065109;28;20389;-64
2021/01/06 16:07:46;;;;;;;1.58;0.63;;;2.80;99.90;;;;;;5063646;28;20057;-65
2021/01/06 16:10:34;;;;;;;5.07;0.98;;;2.80;99.90;;;;;;5061830;28;20153;-65
2021/01/06 16:13:27;;;;;;;2.38;1.00;;;2.80;99.90;;;;;;5065093;28;20049;-64
2021/01/06 16:16:01;;;;;;;2.53;1.05;;;2.70;99.90;;;;;;5041784;28;20111;-64
2021/01/06 16:22:44;;;;;;;1.85;0.82;;;2.70;99.90;;;;;;5047533;28;20086;-64
2021/01/06 16:25:35;;;;;;;1.30;0.60;;;2.60;99.90;;;;;;5033448;28;20457;-63
2021/01/06 16:28:36;;;;;;;2.47;0.70;;;2.60;99.90;;;;;;5039503;28;20048;-64
2021/01/06 16:31:44;;;;;;;3.13;1.17;;;2.60;99.90;;;;;;5037308;28;20566;-64
2021/01/06 16:34:25;;;;;;;2.58;0.85;;;2.60;99.90;;;;;;5054450;28;20439;-64
2021/01/06 16:37:41;;;;;;;4.10;0.93;;;2.50;99.90;;;;;;5054141;28;20053;-64
2021/01/06 16:40:13;;;;;;;2.47;1.00;;;2.60;99.90;;;;;;5053395;28;20037;-65
2021/01/06 16:50:27;;;;;;;5.10;1.30;;;2.70;99.90;;;;;;5066572;28;20047;-64
2021/01/06 16:53:18;;;;;;;2.22;1.15;;;2.70;99.90;;;;;;5056630;28;20126;-63
2021/01/06 16:55:52;;;;;;;4.72;1.05;;;2.70;99.90;;;;;;5037731;28;20045;-63
2021/01/06 16:58:25;;;;;;;1.67;0.80;;;2.60;99.90;;;;;;5060522;28;20124;-64
2021/01/06 17:05:20;;;;;;;3.17;1.10;;;2.70;99.90;;;;;;5063363;28;20147;-64
2021/01/06 17:07:54;;;;;;;2.53;1.10;;;2.70;99.90;;;;;;5054717;28;20052;-64
2021/01/06 17:10:48;;;;;;;2.83;0.77;;;2.70;99.90;;;;;;5071814;28;20047;-63
2021/01/06 17:13:23;;;;;;;4.82;1.15;;;2.70;99.90;;;;;;5047895;28;20045;-64
2021/01/06 17:15:56;;;;;;;6.45;2.60;;;2.70;99.90;;;;;;5052684;28;20040;-63
2021/01/06 17:22:43;;;;;;;5.53;2.10;;;2.80;99.90;;;;;;5061816;28;20055;-64
2021/01/06 17:25:15;;;;;;;6.10;1.65;;;2.70;99.90;;;;;;5067809;28;20048;-64
2021/01/06 17:27:46;;;;;;;4.75;1.45;;;2.80;99.90;;;;;;5036653;28;20054;-63
2021/01/06 17:30:17;;;;;;;3.03;1.30;;;2.80;99.90;;;;;;5037107;28;20404;-63
2021/01/06 17:33:08;;;;;;;4.15;1.75;;;2.80;99.90;;;;;;5036964;28;20397;-64
2021/01/06 17:35:34;;;;;;;3.28;1.45;;;2.80;99.90;;;;;;5074014;28;20057;-64
2021/01/06 17:38:27;;;;;;;6.43;2.22;;;2.80;99.90;;;;;;5073913;28;20048;-64
2021/01/06 17:40:58;;;;;;;4.25;2.00;;;2.80;99.90;;;;;;5071254;28;20489;-64
2021/01/06 17:47:45;;;;;;;4.25;1.95;;;2.90;99.90;;;;;;5054944;28;20031;-64
2021/01/06 17:50:17;;;;;;;3.90;1.63;;;2.90;99.90;;;;;;5070975;28;20044;-64
2021/01/06 17:52:53;;;;;;;3.67;1.60;;;2.90;99.90;;;;;;5069612;28;20036;-64
2021/01/06 18:02:52;;;;;;;9.27;3.30;;;2.80;99.90;;;;;;5075321;28;20040;-64
2021/01/06 18:05:20;;;;;;;4.35;2.08;;;2.80;99.90;;;;;;5070172;28;20037;-64
2021/01/06 18:07:48;;;;;;;3.20;1.70;;;2.80;99.90;;;;;;5067574;28;20041;-64
2021/01/06 18:10:24;;;;;;;5.72;2.03;;;2.80;99.90;;;;;;5060990;28;20498;-63
2021/01/06 18:12:56;;;;;;;3.63;1.52;;;2.70;99.90;;;;;;5050905;28;20042;-64
2021/01/06 18:15:30;;;;;;;3.40;1.48;;;2.80;99.90;;;;;;5063685;28;20387;-64
2021/01/06 18:18:18;;;;;;;4.68;1.88;;;2.80;99.90;;;;;;5056430;28;20041;-63
2021/01/06 18:20:57;;;;;;;2.60;1.35;;;2.70;99.90;;;;;;5059254;28;20041;-64
2021/01/06 18:23:32;;;;;;;2.45;1.17;;;2.80;99.90;;;;;;5055400;28;20041;-64
2021/01/06 18:30:22;;;;;;;2.78;1.05;;;2.80;99.90;;;;;;5054774;28;20435;-63
2021/01/06 18:32:50;;;;;;;3.38;1.30;;;2.80;99.90;;;;;;5037407;28;20048;-63
2021/01/06 18:35:34;;;;;;;3.25;1.40;;;2.80;99.90;;;;;;5068675;28;20087;-64
2021/01/06 18:38:51;;;;;;;3.63;1.02;;;2.80;99.90;;;;;;5062917;28;20485;-64
2021/01/06 18:57:53;;;;;;;3.53;1.10;;;2.80;99.90;;;;;;5057569;28;20081;-64
2021/01/06 19:00:25;;;;;;;3.88;1.75;;;2.80;99.90;;;;;;5060413;28;20119;-64
2021/01/06 19:02:58;;;;;;;7.93;3.53;;;2.80;99.90;;;;;;5067216;28;20036;-63
2021/01/06 19:05:24;;;;;;;7.97;2.90;;;2.80;99.90;;;;;;5033545;28;20045;-64
2021/01/06 19:07:58;;;;;;;5.97;2.50;;;2.80;99.90;;;;;;5054641;28;20040;-64
2021/01/06 19:10:31;;;;;;;5.25;1.70;;;2.80;99.90;;;;;;5034637;28;20121;-63
2021/01/06 19:13:02;;;;;;;2.55;1.15;;;2.70;99.90;;;;;;5035285;28;20068;-63
2021/01/06 19:16:01;;;;;;;3.42;1.38;;;2.80;99.90;;;;;;5068958;28;20044;-64
2021/01/06 19:22:58;;;;;;;2.75;0.90;;;2.70;99.90;;;;;;5039864;28;20483;-64
2021/01/06 19:25:51;;;;;;;2.28;1.10;;;2.70;99.90;;;;;;5056047;28;20043;-64
2021/01/06 19:28:41;;;;;;;2.10;0.90;;;2.70;99.90;;;;;;5054522;28;20053;-64
2021/01/06 19:31:44;;;;;;;2.30;1.00;;;2.70;99.90;;;;;;5056319;28;20167;-64
2021/01/06 19:38:11;;;;;;;2.20;1.08;;;2.70;99.90;;;;;;5055991;28;20056;-64
2021/01/06 19:40:44;;;;;;;4.60;1.10;;;2.60;99.90;;;;;;5034482;28;20048;-63
2021/01/06 19:43:46;;;;;;;1.75;0.85;;;2.60;99.90;;;;;;5072202;28;20047;-64
2021/01/06 19:50:32;;;;;;;1.92;0.95;;;2.60;99.90;;;;;;5062060;28;20055;-63
2021/01/06 20:00:35;;;;;;;3.30;1.38;;;2.70;99.90;;;;;;5055642;28;20036;-63
2021/01/06 20:03:21;;;;;;;2.97;1.08;;;2.70;99.90;;;;;;5055776;28;20044;-64
2021/01/06 20:06:09;;;;;;;5.07;1.80;;;2.70;99.90;;;;;;5053419;28;20041;-64
2021/01/06 20:08:59;;;;;;;3.65;1.10;;;2.60;99.90;;;;;;5062251;28;20051;-63
2021/01/06 20:11:47;;;;;;;2.25;1.02;;;2.60;99.90;;;;;;5065966;28;20053;-61
2021/01/06 20:18:08;;;;;;;4.03;1.33;;;2.60;99.90;;;;;;5051285;28;20032;-64
2021/01/06 20:21:00;;;;;;;2.40;1.48;;;2.60;99.90;;;;;;5060148;28;20052;-64
2021/01/06 20:23:33;;;;;;;3.30;1.38;;;2.60;99.90;;;;;;5058875;28;20048;-64
2021/01/06 20:26:17;;;;;;;2.17;1.13;;;2.70;99.90;;;;;;5053236;28;20048;-64
2021/01/06 20:28:49;;;;;;;2.40;1.23;;;2.60;99.90;;;;;;5054276;28;20542;-63
2021/01/06 20:31:22;;;;;;;1.92;1.00;;;2.60;99.90;;;;;;5072068;28;20493;-64
2021/01/06 20:38:06;;;;;;;2.47;1.00;;;2.60;99.90;;;;;;5057237;28;20048;-64
2021/01/06 20:40:35;;;;;;;2.85;1.23;;;2.50;99.90;;;;;;5033265;28;20037;-64
2021/01/06 20:43:07;;;;;;;3.13;1.42;;;2.50;99.90;;;;;;5061800;28;20036;-64
2021/01/06 20:45:40;;;;;;;2.40;1.15;;;2.50;99.90;;;;;;5049725;28;20053;-64
2021/01/06 20:55:35;;;;;;;3.40;1.60;;;2.40;99.90;;;;;;5062462;28;20047;-64
2021/01/06 20:58:07;;;;;;;4.68;1.90;;;2.40;99.90;;;;;;5057032;28;20041;-64
2021/01/06 21:01:03;;;;;;;3.28;1.63;;;2.40;99.90;;;;;;5056908;28;20044;-63
2021/01/06 21:10:45;;;;;;;2.75;1.17;;;2.40;99.90;;;;;;5068856;28;20041;-64
2021/01/06 21:13:11;;;;;;;3.50;1.27;;;2.30;99.90;;;;;;5063840;28;20377;-63
2021/01/06 21:15:37;;;;;;;3.22;1.60;;;2.30;99.90;;;;;;5072490;28;20093;-63
2021/01/06 21:18:06;;;;;;;2.47;1.10;;;2.40;99.90;;;;;;5072536;28;20037;-64
2021/01/06 21:20:37;;;;;;;1.60;0.95;;;2.30;99.90;;;;;;5062540;28;20370;-63
2021/01/06 21:23:05;;;;;;;1.90;1.00;;;2.40;99.90;;;;;;5068917;28;20492;-63
2021/01/06 21:25:42;;;;;;;2.92;1.25;;;2.40;99.90;;;;;;5054339;28;20047;-63
2021/01/06 21:28:10;;;;;;;1.48;0.75;;;2.40;99.90;;;;;;5036783;28;20052;-68
2021/01/06 21:30:41;;;;;;;2.65;1.20;;;2.40;99.90;;;;;;5037098;28;20041;-64
2021/01/06 21:33:22;;;;;;;3.30;1.08;;;2.40;99.90;;;;;;5065439;28;20045;-64
2021/01/06 21:44:14;;;;;;;1.42;0.88;;;2.40;99.90;;;;;;5057381;28;20044;-64
2021/01/06 21:58:15;;;;;;;3.97;1.08;;;2.40;99.90;;;;;;5048953;28;20045;-63
2021/01/06 22:00:53;;;;;;;1.63;0.73;;;2.30;99.90;;;;;;5069783;28;20040;-63
2021/01/06 22:03:31;;;;;;;3.40;0.98;;;2.30;99.90;;;;;;5064927;28;20045;-63
2021/01/06 22:06:02;;;;;;;3.85;1.30;;;2.30;99.90;;;;;;5055946;28;20044;-63
2021/01/06 22:08:34;;;;;;;3.45;1.05;;;2.30;99.90;;;;;;5066344;28;20376;-63
2021/01/06 22:11:07;;;;;;;2.13;0.98;;;2.40;99.90;;;;;;5068199;28;20054;-64
2021/01/06 22:13:55;;;;;;;3.58;1.10;;;2.30;99.90;;;;;;5075604;28;20499;-64
2021/01/06 22:16:27;;;;;;;2.25;1.00;;;2.30;99.90;;;;;;5055536;28;20374;-63
2021/01/06 22:19:00;;;;;;;2.42;0.95;;;2.30;99.90;;;;;;5055490;28;20045;-63
2021/01/06 22:25:47;;;;;;;2.72;0.93;;;2.20;99.90;;;;;;5059615;28;20488;-63
2021/01/06 22:28:19;;;;;;;1.73;0.82;;;2.30;99.90;;;;;;5059781;28;20051;-63